Lewiston, California
Current Conditions -  °F | °C
As of 3:15 AM on Friday 28 Nov 2014 (Local Time) from KO54 Reporting Station
Overcast Overcast  
Wind Chill: 36°   Ceiling: 200
Heat Index: 39°   Visibility: 0.5mi
Dew Point: 39°   Wind: 5mph
Humidity: 100%   Direction: 30°NNE
Pressure: 30"   Gusts: NA
Location:  40.71°N, 122.81°W
Report Text: KO54 281115Z AUTO 03004KT 1/2SM OVC002 04/04 A3000 RMK AO1
Loading
Personal Weather Stations






























Interactive Weather Map New forecast layout! Learn more

10-Day Weather Forecast

Advertisements
Track Severe Weather on mobile